Pagina principale
METAR-TAF:

METAR-TAF

Aeroporti :

Hammamet, Tunisia

Aeroporto di Enfida-Hammamet

latitudine: 36-04-34N, longitudine: 10-26-19E, altezza: 6 m

Osservazione

Il bollettino è stato emesso 40 minuti fa, alle 07:30 UTC
Vento 8 kt da nord/nord-est, variando fra nord e est/nord-est
Temperature 22°C
Umidità 69%
Pressione 1018 hPa
Visibilità 10 km o più
Poco nuvoloso ad un'altezza di 2000 ft

METAR: DTNH 270730Z AUTO 03008KT 360V060 9999NDV FEW020 22/16 Q1018

Ora: 09:10 (08:10 UTC)

Previsione

Il bollettino è stato emesso 2 ore e 23 minuti fa, alle 05:47 UTC
Previsione valida dal 27 alle 06 UTC al 28 alle 06 UTC
Vento 8 kt da nord/nord-ovest
Visibilità 10 km o più
nessuna nube inferiore a 1500 m e nessun cumulonembo
Evoluzione graduale
dal 27 alle 08 UTC al 27 alle 10 UTC
Vento 10 kt da est/nord-est

TAF: DTNH 270547Z 2706/2806 34008KT CAVOK BECMG 2708/2710 06010KT

Osservazioni e previsioni meteorologiche di più di 4000 aeroporti (messaggi METAR e TAF).

Le stazioni disponibili sono rappresentate dai dischi gialli e rossi sulla carta.

Puntare il mouse per vedere il nome della stazione.

Clicca sopra per visualizzare le osservazioni e previsioni meteorologiche.

Per cambiare la mappa : fare clic sui pulsanti verdi con una croce nera per ingrandire, il pulsante verde con un trattino per diminuire, o sulla freccia verde per le mappe adiacenti.


METAR-TAF: